Time;durP1;ratioP1;P1;durP2;ratioP2;P2;SDS_P1;SDS_P2;PMS_P1;PMS_P2;Temp;Humidity;BMP_temperature;BMP_pressure;BME280_temperature;BME280_humidity;BME280_pressure;Samples;Min_cycle;Max_cycle;Signal;HPM_P1;HPM_P2
2022/01/16 00:04:17;;;;;;;72.53;26.85;;;0.30;52.30;;;;;;5054164;28;20053;-63
2022/01/16 00:06:46;;;;;;;68.40;27.38;;;0.10;52.00;;;;;;5059195;28;20112;-63
2022/01/16 00:09:15;;;;;;;70.95;26.48;;;0.20;52.80;;;;;;5052891;28;20040;-63
2022/01/16 00:11:43;;;;;;;61.70;24.67;;;0.20;52.50;;;;;;5050620;28;20416;-63
2022/01/16 00:14:12;;;;;;;65.45;26.80;;;0.20;52.50;;;;;;5056659;28;20125;-63
2022/01/16 00:16:41;;;;;;;67.30;25.67;;;0.20;52.50;;;;;;5053612;28;20068;-63
2022/01/16 00:19:09;;;;;;;58.47;24.42;;;0.20;52.50;;;;;;5057370;28;20057;-63
2022/01/16 00:21:41;;;;;;;59.95;25.02;;;0.10;52.20;;;;;;5058786;28;20504;-63
2022/01/16 00:24:12;;;;;;;66.13;24.88;;;0.10;52.10;;;;;;5051871;28;20052;-63
2022/01/16 00:26:43;;;;;;;57.83;24.35;;;0.20;52.60;;;;;;5053510;28;20223;-64
2022/01/16 00:29:12;;;;;;;56.17;23.27;;;0.00;51.40;;;;;;5058140;28;20079;-63
2022/01/16 00:31:42;;;;;;;53.97;23.13;;;0.00;51.70;;;;;;5053868;28;20047;-63
2022/01/16 00:34:14;;;;;;;55.22;24.20;;;0.00;51.90;;;;;;5058461;28;20578;-63
2022/01/16 00:36:42;;;;;;;51.80;23.17;;;0.00;51.80;;;;;;5059639;28;20044;-63
2022/01/16 00:39:10;;;;;;;57.05;23.40;;;0.10;52.60;;;;;;5052031;28;20131;-63
2022/01/16 00:41:38;;;;;;;60.95;24.65;;;0.10;52.20;;;;;;5059453;28;20136;-61
2022/01/16 00:44:06;;;;;;;58.00;23.55;;;0.20;52.20;;;;;;5062657;28;20121;-62
2022/01/16 00:46:35;;;;;;;60.13;24.85;;;0.10;51.90;;;;;;5056922;28;20072;-62
2022/01/16 00:49:04;;;;;;;47.15;21.42;;;0.10;51.80;;;;;;5056174;28;20132;-62
2022/01/16 00:51:32;;;;;;;59.08;24.02;;;0.10;51.50;;;;;;5053917;28;20041;-61
2022/01/16 00:54:00;;;;;;;55.85;22.85;;;0.20;51.60;;;;;;5058351;28;20047;-62
2022/01/16 00:56:28;;;;;;;55.67;22.92;;;0.10;50.20;;;;;;5057217;28;20075;-65
2022/01/16 00:58:56;;;;;;;53.03;22.30;;;0.20;50.60;;;;;;5053141;28;20110;-62
2022/01/16 01:01:24;;;;;;;54.70;23.15;;;0.20;50.40;;;;;;5054483;28;20128;-64
2022/01/16 01:03:53;;;;;;;44.53;21.85;;;0.10;47.00;;;;;;5062996;28;20178;-62
2022/01/16 01:06:22;;;;;;;49.65;22.13;;;0.10;47.20;;;;;;5063030;28;20045;-61
2022/01/16 01:08:50;;;;;;;49.03;23.77;;;0.00;46.20;;;;;;5051328;28;20114;-61
2022/01/16 01:11:24;;;;;;;48.88;22.73;;;0.10;46.30;;;;;;5054669;28;20139;-61
2022/01/16 01:16:49;;;;;;;50.25;21.30;;;0.20;46.40;;;;;;5056572;28;20287;-63
2022/01/16 01:19:20;;;;;;;50.42;22.65;;;0.30;46.40;;;;;;5054778;28;20155;-63
2022/01/16 01:21:50;;;;;;;50.50;23.80;;;0.20;45.40;;;;;;5056019;28;20119;-63
2022/01/16 01:24:18;;;;;;;49.78;22.23;;;0.20;45.20;;;;;;5056529;28;20124;-63
2022/01/16 01:26:54;;;;;;;47.55;22.35;;;0.20;44.50;;;;;;5052775;28;20132;-62
2022/01/16 01:29:22;;;;;;;50.22;23.83;;;0.20;44.40;;;;;;5056957;28;20111;-63
2022/01/16 01:31:52;;;;;;;56.40;23.75;;;0.30;44.60;;;;;;5058305;28;20052;-62
2022/01/16 01:34:20;;;;;;;54.25;26.17;;;0.30;45.30;;;;;;5061837;28;20132;-62
2022/01/16 01:36:50;;;;;;;56.75;26.77;;;0.30;44.50;;;;;;5059958;28;20070;-63
2022/01/16 01:39:21;;;;;;;57.22;24.85;;;0.20;44.60;;;;;;5051699;28;20608;-63
2022/01/16 01:41:54;;;;;;;55.33;24.42;;;0.20;45.60;;;;;;5048857;28;20558;-62
2022/01/16 01:52:40;;;;;;;66.72;27.98;;;0.10;46.70;;;;;;5057004;28;20132;-64
2022/01/16 01:55:10;;;;;;;62.67;26.25;;;0.20;47.40;;;;;;5057065;28;20133;-62
2022/01/16 01:57:38;;;;;;;68.50;28.60;;;0.20;48.00;;;;;;5061932;28;20075;-63
2022/01/16 02:00:07;;;;;;;66.13;29.33;;;0.30;48.40;;;;;;5055346;28;20128;-63
2022/01/16 02:02:46;;;;;;;64.45;28.58;;;0.20;48.00;;;;;;5056679;28;20060;-63
2022/01/16 02:05:15;;;;;;;65.20;28.45;;;0.00;47.50;;;;;;5053876;28;20055;-63
2022/01/16 02:07:44;;;;;;;62.83;27.45;;;0.00;48.20;;;;;;5049287;28;20518;-63
2022/01/16 02:10:12;;;;;;;64.50;27.48;;;-0.10;48.00;;;;;;5061210;28;20044;-63
2022/01/16 02:12:43;;;;;;;64.68;28.38;;;0.00;48.80;;;;;;5062574;28;20063;-63
2022/01/16 02:15:34;;;;;;;64.00;28.70;;;0.00;49.50;;;;;;5055930;28;20072;-63
2022/01/16 02:29:51;;;;;;;82.45;30.13;;;0.00;49.60;;;;;;5059269;28;20402;-62
2022/01/16 02:32:39;;;;;;;79.47;30.77;;;0.00;50.10;;;;;;5053200;28;20135;-62
2022/01/16 02:35:08;;;;;;;61.78;29.00;;;-0.10;49.50;;;;;;5052067;28;20158;-62
2022/01/16 02:37:36;;;;;;;65.88;27.77;;;-0.10;50.20;;;;;;5058134;28;20132;-62
2022/01/16 02:40:14;;;;;;;69.70;28.85;;;-0.30;48.90;;;;;;5055349;28;20476;-62
2022/01/16 02:42:51;;;;;;;61.40;27.05;;;-0.30;49.70;;;;;;5056112;28;20049;-63
2022/01/16 02:45:32;;;;;;;71.20;26.73;;;-0.30;50.40;;;;;;5059008;28;20564;-63
2022/01/16 02:48:06;;;;;;;56.17;27.13;;;-0.40;50.50;;;;;;5056196;28;20075;-63
2022/01/16 02:50:36;;;;;;;55.65;26.17;;;-0.30;51.30;;;;;;5053407;28;20056;-62
2022/01/16 02:53:09;;;;;;;61.78;27.55;;;-0.20;51.40;;;;;;5061391;28;20047;-63
2022/01/16 02:55:41;;;;;;;59.67;27.88;;;-0.20;51.40;;;;;;5062592;28;20785;-63
2022/01/16 02:58:09;;;;;;;61.05;28.90;;;-0.10;51.70;;;;;;5056072;28;20576;-62
2022/01/16 03:00:38;;;;;;;64.10;27.77;;;-0.30;50.50;;;;;;5060070;28;20516;-62
2022/01/16 03:03:06;;;;;;;62.55;27.65;;;-0.50;50.50;;;;;;5062767;28;20118;-62
2022/01/16 03:05:35;;;;;;;59.38;25.77;;;-0.50;50.90;;;;;;5067766;28;20052;-62
2022/01/16 03:08:05;;;;;;;55.72;26.45;;;-0.50;51.30;;;;;;5060371;28;20538;-62
2022/01/16 03:13:20;;;;;;;50.13;25.52;;;-0.40;52.00;;;;;;5052206;28;20048;-62
2022/01/16 03:15:50;;;;;;;64.25;26.75;;;-0.30;52.40;;;;;;5063242;28;20060;-62
2022/01/16 03:23:50;;;;;;;58.40;27.45;;;-0.40;52.20;;;;;;5063413;28;20553;-62
2022/01/16 03:26:18;;;;;;;56.00;26.65;;;-0.40;52.50;;;;;;5063051;28;20043;-62
2022/01/16 03:28:47;;;;;;;61.30;27.30;;;-0.40;52.30;;;;;;5061805;28;20068;-62
2022/01/16 03:31:15;;;;;;;61.97;26.30;;;-0.40;52.30;;;;;;5059968;28;20061;-63
2022/01/16 03:33:43;;;;;;;59.20;26.77;;;-0.40;52.50;;;;;;5063500;28;20062;-63
2022/01/16 03:36:11;;;;;;;58.97;26.95;;;-0.40;52.50;;;;;;5062421;28;20139;-63
2022/01/16 03:38:39;;;;;;;70.47;28.35;;;-0.40;53.20;;;;;;5061742;28;20603;-63
2022/01/16 03:41:08;;;;;;;61.08;27.85;;;-0.40;52.90;;;;;;5058450;28;20648;-62
2022/01/16 03:43:36;;;;;;;60.97;27.42;;;-0.40;52.90;;;;;;5064442;28;20076;-63
2022/01/16 03:46:05;;;;;;;66.60;27.80;;;-0.40;53.00;;;;;;5063096;28;20036;-63
2022/01/16 03:48:34;;;;;;;60.35;27.50;;;-0.30;53.20;;;;;;5059454;28;20530;-63
2022/01/16 03:51:02;;;;;;;61.97;28.75;;;-0.30;53.20;;;;;;5057626;28;20077;-63
2022/01/16 03:53:30;;;;;;;59.72;27.00;;;-0.20;53.50;;;;;;5060506;28;20141;-62
2022/01/16 03:55:58;;;;;;;59.90;28.67;;;-0.30;53.90;;;;;;5058953;28;20045;-63
2022/01/16 03:58:26;;;;;;;58.78;27.23;;;-0.40;53.20;;;;;;5060274;28;20037;-62
2022/01/16 04:00:54;;;;;;;57.78;26.75;;;-0.30;53.50;;;;;;5058212;28;20135;-63
2022/01/16 04:03:23;;;;;;;62.90;28.90;;;-0.30;53.30;;;;;;5059216;28;20044;-63
2022/01/16 04:05:51;;;;;;;65.70;29.27;;;-0.30;53.60;;;;;;5057789;28;20132;-63
2022/01/16 04:08:19;;;;;;;64.13;27.98;;;-0.30;53.40;;;;;;5061596;28;20056;-62
2022/01/16 04:10:47;;;;;;;68.85;29.58;;;-0.20;53.60;;;;;;5053126;28;20102;-62
2022/01/16 04:13:19;;;;;;;58.97;27.33;;;-0.20;53.40;;;;;;5053031;28;20101;-62
2022/01/16 04:15:47;;;;;;;60.72;27.15;;;-0.40;52.40;;;;;;5058336;28;20048;-62
2022/01/16 04:18:15;;;;;;;57.85;25.65;;;-0.40;52.90;;;;;;5055608;28;20052;-63
2022/01/16 04:20:45;;;;;;;52.15;27.75;;;-0.30;53.30;;;;;;5052079;28;20059;-63
2022/01/16 04:23:13;;;;;;;64.18;27.17;;;-0.20;53.30;;;;;;5057473;28;20144;-63
2022/01/16 04:25:43;;;;;;;56.85;26.88;;;-0.10;53.60;;;;;;5052943;28;20037;-63
2022/01/16 04:28:11;;;;;;;53.65;26.70;;;-0.20;53.20;;;;;;5054693;28;20041;-63
2022/01/16 04:30:39;;;;;;;53.25;25.55;;;-0.20;53.20;;;;;;5057073;28;20101;-63
2022/01/16 04:33:08;;;;;;;56.97;25.67;;;-0.20;52.90;;;;;;5054894;28;21365;-63
2022/01/16 04:35:36;;;;;;;58.38;26.65;;;-0.20;52.70;;;;;;5052813;28;20135;-65
2022/01/16 04:38:05;;;;;;;62.65;26.70;;;-0.10;52.50;;;;;;5059559;28;20194;-63
2022/01/16 04:40:42;;;;;;;55.25;26.33;;;-0.10;52.10;;;;;;5052813;28;20563;-63
2022/01/16 04:45:58;;;;;;;54.95;26.08;;;-0.20;52.10;;;;;;5057475;28;20052;-63
2022/01/16 04:48:26;;;;;;;68.60;27.17;;;-0.20;52.10;;;;;;5053406;28;20040;-63
2022/01/16 04:50:54;;;;;;;68.47;26.80;;;-0.20;50.70;;;;;;5048706;28;20057;-63
2022/01/16 04:53:24;;;;;;;59.08;25.30;;;-0.20;51.20;;;;;;5059366;28;20155;-63
2022/01/16 04:55:52;;;;;;;65.20;29.13;;;-0.20;50.40;;;;;;5053414;28;20044;-62
2022/01/16 04:58:21;;;;;;;64.13;28.98;;;-0.20;51.50;;;;;;5055140;28;20504;-63
2022/01/16 05:00:54;;;;;;;63.88;27.88;;;-0.10;51.40;;;;;;5056102;28;20115;-62
2022/01/16 05:03:23;;;;;;;68.10;27.50;;;-0.20;51.60;;;;;;5054440;28;20521;-62
2022/01/16 05:05:51;;;;;;;64.22;27.65;;;-0.10;51.60;;;;;;5049953;28;20156;-63
2022/01/16 05:08:19;;;;;;;63.72;26.48;;;-0.10;52.00;;;;;;5057880;28;20125;-62
2022/01/16 05:10:52;;;;;;;63.85;27.17;;;-0.20;51.00;;;;;;5052267;28;20052;-62
2022/01/16 05:16:34;;;;;;;60.97;26.83;;;-0.10;51.80;;;;;;5054395;28;20049;-63
2022/01/16 05:16:37;;;;;;;65.93;28.02;;;-0.10;51.50;;;;;;5055328;28;20060;-63
2022/01/16 05:19:08;;;;;;;69.32;29.60;;;-0.10;51.60;;;;;;5052611;28;20060;-63
2022/01/16 05:21:36;;;;;;;70.72;29.13;;;0.00;51.80;;;;;;5051576;28;20114;-63
2022/01/16 05:24:08;;;;;;;60.97;27.85;;;0.00;51.50;;;;;;5055880;28;20077;-63
2022/01/16 05:26:40;;;;;;;69.00;27.60;;;0.00;51.60;;;;;;5054858;28;20076;-63
2022/01/16 05:29:09;;;;;;;61.47;28.08;;;0.00;51.30;;;;;;5056530;28;20041;-63
2022/01/16 05:31:37;;;;;;;60.05;27.50;;;-0.10;50.70;;;;;;5051827;28;20487;-62
2022/01/16 05:34:05;;;;;;;63.28;27.10;;;0.00;50.80;;;;;;5056588;28;20067;-63
2022/01/16 05:36:37;;;;;;;62.75;28.10;;;-0.10;50.40;;;;;;5051550;28;20049;-62
2022/01/16 05:39:05;;;;;;;58.60;26.17;;;-0.10;50.30;;;;;;5052803;28;20049;-62
2022/01/16 05:41:33;;;;;;;57.53;26.23;;;0.00;50.20;;;;;;5052935;28;20048;-62
2022/01/16 05:44:02;;;;;;;58.63;26.35;;;-0.10;50.10;;;;;;5054889;28;20436;-62
2022/01/16 05:46:30;;;;;;;54.17;24.58;;;-0.10;50.00;;;;;;5055102;28;20084;-62
2022/01/16 05:48:58;;;;;;;56.83;25.90;;;-0.20;48.60;;;;;;5055251;28;20033;-62
2022/01/16 05:51:26;;;;;;;58.47;25.25;;;-0.20;48.80;;;;;;5047238;28;20088;-62
2022/01/16 05:53:56;;;;;;;53.58;26.15;;;-0.20;49.00;;;;;;5056417;28;20701;-62
2022/01/16 05:56:24;;;;;;;55.63;25.70;;;-0.20;49.00;;;;;;5056676;28;20077;-62
2022/01/16 05:58:52;;;;;;;49.97;24.25;;;-0.20;48.60;;;;;;5052912;28;20051;-62
2022/01/16 06:01:22;;;;;;;56.25;25.50;;;-0.20;47.90;;;;;;5058055;28;20048;-61
2022/01/16 06:03:50;;;;;;;61.20;25.73;;;-0.20;48.10;;;;;;5052734;28;20040;-62
2022/01/16 06:06:18;;;;;;;52.42;24.75;;;-0.20;48.10;;;;;;5054925;28;20061;-61
2022/01/16 06:08:46;;;;;;;52.40;25.58;;;-0.20;47.40;;;;;;5054630;28;20492;-62
2022/01/16 06:11:14;;;;;;;60.80;25.90;;;-0.30;46.30;;;;;;5051192;28;20087;-61
2022/01/16 06:13:42;;;;;;;53.92;25.17;;;-0.30;46.20;;;;;;5052699;28;20539;-61
2022/01/16 06:16:10;;;;;;;50.38;24.27;;;-0.30;46.30;;;;;;5056609;28;20276;-61
2022/01/16 06:18:39;;;;;;;50.97;24.65;;;-0.40;45.90;;;;;;5050182;28;20037;-62
2022/01/16 06:21:07;;;;;;;49.08;22.98;;;-0.30;47.10;;;;;;5048028;28;20049;-61
2022/01/16 06:23:35;;;;;;;55.63;25.20;;;-0.30;46.60;;;;;;5060382;28;20049;-65
2022/01/16 06:26:03;;;;;;;50.22;24.60;;;-0.30;46.00;;;;;;5052902;28;20048;-61
2022/01/16 06:28:31;;;;;;;51.83;23.20;;;-0.70;43.80;;;;;;5051910;28;20160;-61
2022/01/16 06:31:06;;;;;;;49.90;23.83;;;-0.60;46.10;;;;;;5058172;28;20064;-61
2022/01/16 06:33:34;;;;;;;48.17;23.58;;;-0.50;47.40;;;;;;5059404;28;20424;-61
2022/01/16 06:36:05;;;;;;;60.40;24.80;;;-0.40;47.60;;;;;;5056726;28;20512;-62
2022/01/16 06:38:35;;;;;;;56.13;24.08;;;-0.60;45.70;;;;;;5061327;28;20055;-61
2022/01/16 06:41:03;;;;;;;51.10;22.58;;;-0.70;47.60;;;;;;5056277;28;20361;-61
2022/01/16 06:43:31;;;;;;;56.90;25.08;;;-0.80;45.90;;;;;;5056560;28;20135;-61
2022/01/16 06:46:00;;;;;;;49.75;23.67;;;-0.70;47.80;;;;;;5060367;28;20454;-62
2022/01/16 06:48:28;;;;;;;50.78;24.00;;;-0.60;48.10;;;;;;5059428;28;20051;-62
2022/01/16 06:50:56;;;;;;;57.00;25.13;;;-0.50;48.70;;;;;;5057043;28;20492;-62
2022/01/16 06:53:26;;;;;;;57.92;24.08;;;-0.60;47.90;;;;;;5063029;28;20040;-62
2022/01/16 06:55:54;;;;;;;52.63;24.38;;;-0.60;48.30;;;;;;5056027;28;20056;-62
2022/01/16 06:58:22;;;;;;;55.95;24.25;;;-0.50;48.70;;;;;;5056694;28;20147;-62
2022/01/16 07:00:51;;;;;;;54.97;24.98;;;-0.70;47.90;;;;;;5055069;28;20168;-62
2022/01/16 07:03:21;;;;;;;53.95;23.60;;;-0.70;48.30;;;;;;5060236;28;20067;-62
2022/01/16 07:05:50;;;;;;;46.15;22.40;;;-0.90;48.10;;;;;;5055748;28;20056;-62
2022/01/16 07:08:22;;;;;;;51.08;24.20;;;-1.00;48.80;;;;;;5061691;28;20042;-62
2022/01/16 07:10:53;;;;;;;66.20;25.83;;;-0.90;50.20;;;;;;5057160;28;20355;-62
2022/01/16 07:13:23;;;;;;;64.38;22.15;;;-0.90;50.40;;;;;;5063139;28;20045;-62
2022/01/16 07:15:52;;;;;;;66.43;24.60;;;-0.90;49.40;;;;;;5060477;28;20222;-62
2022/01/16 07:18:20;;;;;;;53.45;25.30;;;-0.90;50.40;;;;;;5058140;28;20922;-62
2022/01/16 07:20:49;;;;;;;57.05;24.00;;;-0.90;50.30;;;;;;5056768;28;20048;-62
2022/01/16 07:23:19;;;;;;;69.88;24.25;;;-0.90;50.40;;;;;;5059137;28;20064;-62
2022/01/16 07:25:53;;;;;;;50.70;24.05;;;-0.80;51.00;;;;;;5057942;28;20048;-62
2022/01/16 07:28:22;;;;;;;52.22;24.42;;;-0.80;51.30;;;;;;5055701;28;20053;-61
2022/01/16 07:30:52;;;;;;;105.18;25.98;;;-0.90;50.40;;;;;;5053820;28;20048;-63
2022/01/16 07:33:20;;;;;;;69.47;26.35;;;-0.90;50.90;;;;;;5055919;28;20073;-62
2022/01/16 07:35:48;;;;;;;58.17;24.92;;;-1.00;50.30;;;;;;5058486;28;20044;-62
2022/01/16 07:38:16;;;;;;;54.97;25.05;;;-0.80;51.20;;;;;;5055386;28;20562;-62
2022/01/16 07:40:44;;;;;;;57.08;25.33;;;-0.70;51.60;;;;;;5048396;28;20048;-61
2022/01/16 07:43:14;;;;;;;54.58;25.98;;;-0.60;51.90;;;;;;5057829;28;20049;-62
2022/01/16 07:45:42;;;;;;;57.78;26.45;;;-0.60;51.70;;;;;;5060081;28;20086;-61
2022/01/16 07:48:10;;;;;;;55.70;26.10;;;-0.70;51.10;;;;;;5049841;28;20553;-62
2022/01/16 07:50:39;;;;;;;54.58;24.25;;;-0.70;51.40;;;;;;5057982;28;20103;-62
2022/01/16 07:53:08;;;;;;;51.97;24.05;;;-0.60;51.30;;;;;;5058596;28;20566;-61
2022/01/16 07:55:36;;;;;;;47.70;23.13;;;-0.70;51.10;;;;;;5050384;28;20123;-61
2022/01/16 07:58:05;;;;;;;50.65;23.02;;;-1.00;48.40;;;;;;5057285;28;20057;-62
2022/01/16 08:00:34;;;;;;;51.38;23.30;;;-0.90;50.00;;;;;;5056687;28;20059;-62
2022/01/16 08:03:04;;;;;;;49.17;22.65;;;-0.80;49.00;;;;;;5056768;28;20118;-62
2022/01/16 08:05:34;;;;;;;46.13;21.77;;;-0.90;48.60;;;;;;5059599;28;20056;-62
2022/01/16 08:08:03;;;;;;;39.22;21.30;;;-0.80;47.70;;;;;;5053039;28;20049;-61
2022/01/16 08:10:31;;;;;;;42.72;20.67;;;-0.90;48.10;;;;;;5051977;28;20102;-62
2022/01/16 08:12:59;;;;;;;43.53;22.88;;;-0.70;48.50;;;;;;5061025;28;20119;-62
2022/01/16 08:15:28;;;;;;;44.40;21.90;;;-0.80;48.30;;;;;;5055513;28;20057;-62
2022/01/16 08:17:57;;;;;;;43.85;22.80;;;-0.70;48.20;;;;;;5052117;28;20161;-62
2022/01/16 08:20:26;;;;;;;44.17;20.15;;;-0.70;48.40;;;;;;5053531;28;20131;-62
2022/01/16 08:22:54;;;;;;;40.72;22.33;;;-0.70;46.40;;;;;;5052084;28;20114;-62
2022/01/16 08:25:23;;;;;;;47.30;22.92;;;-1.00;45.40;;;;;;5055536;28;20080;-62
2022/01/16 08:27:51;;;;;;;41.80;21.40;;;-0.80;47.50;;;;;;5058325;28;20040;-62
2022/01/16 08:30:20;;;;;;;43.25;21.67;;;-0.60;48.20;;;;;;5049381;28;20123;-60
2022/01/16 08:32:48;;;;;;;44.85;21.35;;;-0.70;45.60;;;;;;5055547;28;20037;-61
2022/01/16 08:35:22;;;;;;;48.60;23.75;;;-0.50;45.80;;;;;;5061035;28;20052;-62
2022/01/16 08:37:50;;;;;;;48.20;23.63;;;-0.60;45.70;;;;;;5054457;28;20055;-62
2022/01/16 08:40:18;;;;;;;45.40;22.17;;;-0.40;45.80;;;;;;5054044;28;20576;-62
2022/01/16 08:42:46;;;;;;;43.65;22.33;;;-0.50;42.80;;;;;;5059625;28;20037;-62
2022/01/16 08:45:14;;;;;;;45.75;23.98;;;-0.40;44.10;;;;;;5051835;28;20067;-62
2022/01/16 08:47:42;;;;;;;51.63;22.27;;;-0.40;42.10;;;;;;5054586;28;20096;-63
2022/01/16 08:50:11;;;;;;;45.85;22.17;;;-0.50;41.60;;;;;;5054518;28;20124;-63
2022/01/16 08:52:41;;;;;;;50.03;23.45;;;-0.40;41.80;;;;;;5050982;28;20040;-62
2022/01/16 08:55:10;;;;;;;44.40;22.25;;;-0.40;41.00;;;;;;5054311;28;20076;-62
2022/01/16 08:57:38;;;;;;;43.45;22.70;;;-0.30;41.40;;;;;;5057140;28;20248;-63
2022/01/16 09:00:09;;;;;;;45.10;22.83;;;-0.30;40.00;;;;;;5052358;28;20044;-62
2022/01/16 09:02:37;;;;;;;42.00;22.85;;;-0.20;39.80;;;;;;5056384;28;20131;-63
2022/01/16 09:05:06;;;;;;;46.22;24.02;;;-0.20;39.80;;;;;;5060026;28;20086;-62
2022/01/16 09:07:34;;;;;;;48.28;24.83;;;0.00;39.40;;;;;;5059003;28;20098;-62
2022/01/16 09:10:04;;;;;;;50.22;24.10;;;0.00;39.10;;;;;;5055004;28;20540;-62
2022/01/16 09:12:35;;;;;;;52.33;25.60;;;0.00;38.10;;;;;;5056653;28;20137;-63
2022/01/16 09:15:07;;;;;;;50.35;25.85;;;0.10;38.20;;;;;;5053938;28;20048;-62
2022/01/16 09:17:35;;;;;;;52.63;25.95;;;0.10;38.90;;;;;;5057143;28;20568;-62
2022/01/16 09:20:05;;;;;;;47.22;24.27;;;0.10;38.50;;;;;;5051397;28;20052;-62
2022/01/16 09:22:36;;;;;;;44.97;23.55;;;0.00;38.10;;;;;;5054008;28;20065;-62
2022/01/16 09:25:07;;;;;;;48.70;24.13;;;0.00;38.10;;;;;;5053922;28;20044;-62
2022/01/16 09:27:35;;;;;;;44.80;24.10;;;0.10;39.10;;;;;;5056004;28;20072;-62
2022/01/16 09:30:05;;;;;;;49.33;25.25;;;0.10;38.20;;;;;;5055943;28;20120;-62
2022/01/16 09:32:36;;;;;;;45.67;23.58;;;0.00;38.50;;;;;;5052942;28;20044;-62
2022/01/16 09:35:06;;;;;;;55.22;26.63;;;0.10;39.70;;;;;;5056631;28;20048;-62
2022/01/16 09:37:34;;;;;;;49.42;24.67;;;0.20;39.80;;;;;;5052335;28;20140;-62
2022/01/16 09:40:03;;;;;;;46.95;26.38;;;0.20;39.80;;;;;;5053186;28;20048;-62
2022/01/16 09:42:34;;;;;;;55.17;27.88;;;0.20;39.50;;;;;;5057578;28;20051;-63
2022/01/16 09:45:03;;;;;;;53.63;27.15;;;0.20;39.00;;;;;;5057850;28;20519;-62
2022/01/16 09:47:30;;;;;;;49.05;27.38;;;0.30;40.00;;;;;;5060550;28;20071;-62
2022/01/16 09:49:59;;;;;;;56.63;28.95;;;0.40;39.20;;;;;;5055924;28;20849;-61
2022/01/16 09:52:27;;;;;;;53.00;27.90;;;0.40;39.20;;;;;;5059863;28;20064;-61
2022/01/16 09:54:56;;;;;;;63.28;29.70;;;0.30;38.30;;;;;;5060396;28;20055;-61
2022/01/16 09:57:24;;;;;;;60.85;29.55;;;0.40;39.50;;;;;;5060665;28;20056;-61
2022/01/16 09:59:53;;;;;;;62.42;28.48;;;0.50;39.10;;;;;;5056500;28;20037;-62
2022/01/16 10:02:21;;;;;;;59.58;28.75;;;0.40;39.10;;;;;;5056941;28;20155;-62
2022/01/16 10:04:49;;;;;;;55.35;27.63;;;0.40;39.90;;;;;;5062745;28;20097;-62
2022/01/16 10:07:18;;;;;;;55.92;28.83;;;0.30;40.20;;;;;;5062381;28;20053;-63
2022/01/16 10:10:03;;;;;;;57.25;29.67;;;0.50;41.70;;;;;;5055070;28;20119;-62
2022/01/16 10:12:33;;;;;;;60.53;29.90;;;0.50;41.60;;;;;;5061677;28;20046;-62
2022/01/16 10:15:17;;;;;;;61.65;29.90;;;0.60;42.60;;;;;;5055395;28;20068;-63
2022/01/16 10:17:46;;;;;;;62.28;29.38;;;0.70;42.20;;;;;;5058913;28;20139;-63
2022/01/16 10:20:16;;;;;;;59.33;28.27;;;0.80;42.50;;;;;;5059654;28;20098;-61
2022/01/16 10:22:53;;;;;;;55.15;28.05;;;0.90;42.20;;;;;;5063765;28;20038;-61
2022/01/16 10:25:39;;;;;;;52.38;26.42;;;1.00;41.30;;;;;;5059782;28;20485;-61
2022/01/16 10:28:14;;;;;;;54.00;28.23;;;1.00;38.90;;;;;;5062825;28;20113;-63
2022/01/16 10:30:45;;;;;;;53.80;26.98;;;1.10;39.20;;;;;;5055062;28;20068;-63
2022/01/16 10:33:15;;;;;;;56.15;26.10;;;1.20;38.20;;;;;;5064217;28;20073;-62
2022/01/16 10:35:47;;;;;;;49.20;24.77;;;1.30;37.30;;;;;;5063683;28;20140;-62
2022/01/16 10:38:18;;;;;;;50.42;26.08;;;1.20;35.60;;;;;;5061604;28;20098;-62
2022/01/16 10:40:50;;;;;;;52.20;25.38;;;1.20;35.00;;;;;;5061231;28;20045;-62
2022/01/16 10:43:19;;;;;;;54.08;24.83;;;1.30;35.00;;;;;;5062190;28;20128;-62
2022/01/16 10:45:51;;;;;;;55.95;26.88;;;1.30;35.50;;;;;;5063381;28;20072;-62
2022/01/16 10:48:25;;;;;;;50.85;25.02;;;1.40;35.00;;;;;;5058131;28;20040;-62
2022/01/16 10:50:53;;;;;;;57.17;26.63;;;1.50;34.00;;;;;;5059283;28;20044;-61
2022/01/16 10:53:25;;;;;;;48.58;25.77;;;1.40;33.50;;;;;;5059997;28;20071;-63
2022/01/16 10:55:55;;;;;;;50.55;22.58;;;1.40;33.60;;;;;;5060795;28;20455;-62
2022/01/16 10:58:24;;;;;;;47.45;23.23;;;1.40;33.50;;;;;;5061270;28;20037;-63
2022/01/16 11:00:59;;;;;;;44.42;22.77;;;1.40;33.60;;;;;;5054260;28;20575;-62
2022/01/16 11:03:29;;;;;;;52.05;25.60;;;1.40;34.20;;;;;;5062440;28;20055;-62
2022/01/16 11:05:57;;;;;;;47.10;23.98;;;1.50;34.10;;;;;;5064374;28;20524;-62
2022/01/16 11:08:27;;;;;;;46.65;22.92;;;1.50;34.50;;;;;;5060367;28;20053;-63
2022/01/16 11:10:56;;;;;;;47.88;20.70;;;1.50;32.60;;;;;;5059495;28;20079;-62
2022/01/16 11:13:42;;;;;;;43.42;20.98;;;1.50;33.00;;;;;;5058959;28;20044;-62
2022/01/16 11:16:13;;;;;;;49.35;23.92;;;1.50;34.10;;;;;;5057679;28;20044;-62
2022/01/16 11:18:40;;;;;;;43.95;21.50;;;1.50;33.30;;;;;;5060389;28;20049;-63
2022/01/16 11:21:15;;;;;;;46.38;23.17;;;1.50;33.40;;;;;;5057584;28;20072;-61
2022/01/16 11:23:49;;;;;;;49.75;23.98;;;1.50;34.10;;;;;;5059788;28;20149;-62
2022/01/16 11:26:18;;;;;;;;;;;1.50;34.50;;;;;;5056024;28;20049;-63
2022/01/16 11:28:47;;;;;;;47.10;24.08;;;1.40;34.20;;;;;;5059872;28;19921;-63
2022/01/16 11:31:17;;;;;;;48.17;23.33;;;1.50;35.20;;;;;;5056995;28;20044;-61
2022/01/16 11:33:45;;;;;;;47.78;23.92;;;1.40;35.10;;;;;;5054775;28;20128;-64
2022/01/16 11:36:16;;;;;;;47.50;24.92;;;1.40;36.10;;;;;;5060713;28;20123;-62
2022/01/16 11:38:49;;;;;;;49.05;24.02;;;1.40;35.50;;;;;;5057456;28;20678;-61
2022/01/16 11:41:26;;;;;;;56.08;26.38;;;1.40;35.90;;;;;;5063979;28;20048;-62
2022/01/16 11:43:56;;;;;;;47.78;24.00;;;1.50;36.20;;;;;;5055854;28;20053;-62
2022/01/16 11:46:35;;;;;;;54.72;25.08;;;1.40;34.70;;;;;;5054328;28;20466;-63
2022/01/16 11:49:06;;;;;;;47.70;24.25;;;1.40;35.00;;;;;;5059779;28;20048;-63
2022/01/16 11:52:05;;;;;;;53.42;24.77;;;1.40;34.60;;;;;;5058126;28;20144;-62
2022/01/16 11:54:35;;;;;;;56.33;24.95;;;1.50;33.70;;;;;;5057832;28;20118;-62
2022/01/16 11:57:22;;;;;;;50.17;24.40;;;1.40;34.20;;;;;;5051706;28;20045;-62
2022/01/16 11:59:54;;;;;;;52.30;25.05;;;1.60;34.10;;;;;;5051604;28;20075;-62
2022/01/16 12:02:27;;;;;;;45.92;21.48;;;1.70;34.20;;;;;;5056764;28;20076;-62
2022/01/16 12:05:06;;;;;;;47.22;23.90;;;1.70;31.10;;;;;;5057306;28;20056;-62
2022/01/16 12:07:55;;;;;;;44.60;22.95;;;1.70;31.10;;;;;;5055811;28;20475;-62
2022/01/16 12:10:45;;;;;;;42.33;21.85;;;1.80;29.30;;;;;;5057831;28;20040;-63
2022/01/16 12:13:54;;;;;;;42.40;20.92;;;1.90;28.80;;;;;;5056925;28;20076;-62
2022/01/16 12:16:45;;;;;;;44.67;21.30;;;2.00;28.40;;;;;;5057978;28;20044;-64
2022/01/16 12:19:37;;;;;;;47.85;21.55;;;2.00;28.60;;;;;;5054901;28;20492;-62
2022/01/16 12:22:08;;;;;;;40.90;19.63;;;1.90;27.80;;;;;;5055048;28;20596;-62
2022/01/16 12:24:38;;;;;;;40.17;21.33;;;1.90;28.20;;;;;;5060981;28;20561;-62
2022/01/16 12:27:39;;;;;;;43.47;22.08;;;2.00;28.00;;;;;;5055266;28;20064;-63
2022/01/16 12:30:21;;;;;;;39.40;20.70;;;2.00;27.70;;;;;;5053616;28;20045;-62
2022/01/16 12:32:57;;;;;;;42.95;20.77;;;2.00;27.80;;;;;;5056747;28;20041;-62
2022/01/16 12:36:14;;;;;;;43.75;20.90;;;2.00;26.90;;;;;;5056137;28;20045;-63
2022/01/16 12:38:53;;;;;;;41.90;22.70;;;2.10;27.20;;;;;;5051114;28;20105;-62
2022/01/16 12:41:28;;;;;;;41.95;21.33;;;2.20;27.80;;;;;;5061000;28;20072;-63
2022/01/16 12:43:58;;;;;;;42.28;21.40;;;2.30;26.60;;;;;;5056492;28;20044;-63
2022/01/16 12:46:33;;;;;;;42.78;21.33;;;2.30;25.40;;;;;;5058455;28;20049;-64
2022/01/16 12:49:10;;;;;;;35.72;19.58;;;2.30;25.80;;;;;;5061038;28;20270;-62
2022/01/16 12:51:40;;;;;;;35.65;18.90;;;2.40;24.80;;;;;;5060575;28;20075;-63
2022/01/16 12:54:11;;;;;;;40.33;20.27;;;2.40;25.30;;;;;;5056720;28;20076;-63
2022/01/16 12:56:44;;;;;;;38.75;19.38;;;2.30;24.20;;;;;;5053332;28;20056;-63
2022/01/16 12:59:36;;;;;;;36.20;19.45;;;2.40;24.80;;;;;;5051837;28;20611;-62
2022/01/16 13:02:08;;;;;;;35.90;19.83;;;2.30;24.80;;;;;;5054634;28;20202;-63
2022/01/16 13:04:39;;;;;;;38.28;19.52;;;2.40;24.80;;;;;;5058520;28;20040;-63
2022/01/16 13:07:32;;;;;;;34.75;19.92;;;2.50;24.80;;;;;;5056613;28;20504;-62
2022/01/16 13:10:03;;;;;;;37.65;19.90;;;2.40;23.70;;;;;;5056245;28;20053;-64
2022/01/16 13:12:32;;;;;;;33.70;18.13;;;2.40;24.40;;;;;;5055440;28;20060;-62
2022/01/16 13:15:01;;;;;;;35.03;17.77;;;2.40;24.10;;;;;;5050850;28;20048;-64
2022/01/16 13:17:32;;;;;;;36.33;18.67;;;2.40;23.70;;;;;;5060278;28;20044;-64
2022/01/16 13:20:02;;;;;;;34.28;17.05;;;2.50;23.80;;;;;;5060017;28;20127;-64
2022/01/16 13:22:36;;;;;;;33.38;17.25;;;2.40;22.80;;;;;;5052789;28;20056;-64
2022/01/16 13:25:08;;;;;;;34.22;17.63;;;2.40;23.00;;;;;;5057014;28;20047;-64
2022/01/16 13:27:38;;;;;;;30.23;16.52;;;2.50;23.20;;;;;;5057557;28;20045;-63
2022/01/16 13:30:10;;;;;;;31.63;17.30;;;2.60;22.50;;;;;;5060265;28;20129;-64